22:03
Airports
History
Links
Donate
Help keep this website running!
PayPal
Bitcoin
This page is community maintained. The information is intended for PC simulator navigation or reference.
Always use approved charts for navigation.
SSXA
Fazenda Congonhas
Fazenda Congonhas (SSXA)
SertanĂ³polis, Parana, Brazil (86170)
4
Lat/Lng:23° 2' 19" S / 50° 56' 4" W
-23.038611 / -50.934444
Elevation:1526'ft / 465mMSL
ID / ICAO:SSXA
Runways:1
Longest:11-29
Grass 708m / 2,323ft
Nearby Weather22:00 GMT 2017-10-16
Nearby weather at SBLO, Londrina located 23.9 nautical miles from SSXA
Altimeter: 30.06
Visibility: 6.2 statute miles
Wind: 9 knots (from 110°)
Temp: 26°c / 79°f
Humidity: 54.1%

METAR: SBLO 162200Z 11009KT CAVOK 26/16 Q1018

(Powered by phpweather)
Runway 11 / 29
Dimensions:708.1 x 35.1m 2323' x 115'ft
Surface:Grass
Runway 11 [A]Runway 29 [B]
Heading:091°TH 271°TH
Lat:
Lng:
23° 2' 18.62"S
50° 56' 16.32"W
23° 2' 19.38"S
50° 55' 51.68"W
User Notes and Comments
23° 2' 19" S / 50° 56' 4" W
Distance To
Airport ID:
Nearby Airports
(C) Sertanopolis 5.3 NM
SSSZ WSW 252°
4 14 Bis 20.1 NM
SSOK SW 232°
(C) Cornelio Procopio 22.5 NM
SSCP ESE 110°
(C) Londrina 23.9 NM
SBLO ( WX ) SSW 211°
4 Fazenda Sao Francisco 27.8 NM
SDLV WNW 287°
4 Fazenda Guaicuruzinho 27.9 NM
SSWK E 89°
4 Fazenda Santa Helena 30.5 NM
SSKI SE 133°
VFR Chart
Flight Planning at SkyVector.com